Time;durP1;ratioP1;P1;durP2;ratioP2;P2;SDS_P1;SDS_P2;PMS_P1;PMS_P2;Temp;Humidity;BMP_temperature;BMP_pressure;BME280_temperature;BME280_humidity;BME280_pressure;Samples;Min_cycle;Max_cycle;Signal;HPM_P1;HPM_P2
2022/10/20 00:00:34;;;;;;;94.03;45.40;;;8.90;99.90;;;;;;6177691;23;20067;-91
2022/10/20 00:03:22;;;;;;;82.88;42.13;;;8.90;99.90;;;;;;6197982;23;20024;-91
2022/10/20 00:06:26;;;;;;;110.57;50.83;;;8.90;99.90;;;;;;6220164;23;20042;-92
2022/10/20 00:09:14;;;;;;;106.53;46.42;;;9.10;99.90;;;;;;6221843;23;20028;-93
2022/10/20 00:12:01;;;;;;;97.80;43.88;;;9.00;99.90;;;;;;6198342;23;20424;-92
2022/10/20 00:14:50;;;;;;;98.05;46.78;;;8.90;99.90;;;;;;6218046;23;20052;-92
2022/10/20 00:17:37;;;;;;;98.28;45.22;;;8.90;99.90;;;;;;6198611;23;20021;-94
2022/10/20 00:20:24;;;;;;;93.38;44.85;;;8.80;99.90;;;;;;6177826;23;20024;-92
2022/10/20 00:23:12;;;;;;;101.18;43.85;;;8.80;99.90;;;;;;6198546;23;20032;-91
2022/10/20 00:26:05;;;;;;;86.97;41.78;;;8.70;99.90;;;;;;6196298;23;20028;-93
2022/10/20 00:28:53;;;;;;;89.20;45.03;;;8.70;99.90;;;;;;6219343;23;20443;-92
2022/10/20 00:31:50;;;;;;;97.43;45.17;;;8.70;99.90;;;;;;6219669;23;20031;-93
2022/10/20 00:34:37;;;;;;;109.00;46.63;;;8.70;99.90;;;;;;6196465;23;20451;-92
2022/10/20 00:37:25;;;;;;;113.15;46.05;;;8.70;99.90;;;;;;6221201;23;20031;-93
2022/10/20 00:40:12;;;;;;;108.28;47.72;;;8.70;99.90;;;;;;6199311;23;20039;-92
2022/10/20 00:43:00;;;;;;;116.57;49.80;;;8.70;99.90;;;;;;6218933;23;20032;-91
2022/10/20 00:45:56;;;;;;;116.60;46.85;;;8.70;99.90;;;;;;6200725;23;20040;-92
2022/10/20 00:48:47;;;;;;;113.05;46.20;;;8.60;99.90;;;;;;6217414;23;20020;-92
2022/10/20 00:51:34;;;;;;;111.40;44.90;;;8.40;99.90;;;;;;6198328;23;20427;-94
2022/10/20 00:54:25;;;;;;;104.47;43.20;;;8.40;99.90;;;;;;6198004;23;20024;-93
2022/10/20 00:57:13;;;;;;;103.22;42.65;;;8.40;99.90;;;;;;6198399;23;20435;-94
2022/10/20 01:00:00;;;;;;;119.72;48.58;;;8.40;99.90;;;;;;6196524;23;20029;-92
2022/10/20 01:02:50;;;;;;;129.20;51.25;;;8.60;99.90;;;;;;6197513;23;20032;-93
2022/10/20 01:05:38;;;;;;;121.57;47.80;;;8.70;99.90;;;;;;6216751;23;20029;-92
2022/10/20 01:08:26;;;;;;;116.25;48.03;;;8.70;99.90;;;;;;6196939;23;20063;-93
2022/10/20 01:11:16;;;;;;;104.97;44.90;;;8.60;99.90;;;;;;6219496;23;20087;-93
2022/10/20 01:14:11;;;;;;;110.18;45.10;;;8.60;99.90;;;;;;6197702;23;20404;-92
2022/10/20 01:17:37;;;;;;;107.68;43.25;;;8.50;99.90;;;;;;6199532;23;20025;-93
2022/10/20 01:21:03;;;;;;;103.93;41.35;;;8.50;99.90;;;;;;6101228;23;20113;-92
2022/10/20 01:24:23;;;;;;;86.47;38.72;;;8.30;99.90;;;;;;6102194;23;20056;-93
2022/10/20 01:27:11;;;;;;;92.15;38.28;;;8.20;99.90;;;;;;6221349;23;20110;-92
2022/10/20 01:30:04;;;;;;;99.07;42.13;;;8.10;99.90;;;;;;6200822;23;20096;-95
2022/10/20 01:32:57;;;;;;;;;;;8.20;99.90;;;;;;6198408;23;20032;-92
2022/10/20 01:35:51;;;;;;;109.25;43.78;;;8.20;99.90;;;;;;6207418;23;19920;-92
2022/10/20 01:39:03;;;;;;;105.32;42.35;;;8.20;99.90;;;;;;6200564;23;20150;-91
2022/10/20 01:41:57;;;;;;;116.32;46.20;;;8.30;99.90;;;;;;6200835;23;20082;-93
2022/10/20 01:44:46;;;;;;;114.28;45.00;;;8.40;99.90;;;;;;6198842;23;20443;-92
2022/10/20 01:47:35;;;;;;;118.78;45.05;;;8.40;99.90;;;;;;6219490;23;20083;-93
2022/10/20 01:50:24;;;;;;;110.97;45.83;;;8.40;99.90;;;;;;6198426;23;20419;-92
2022/10/20 01:53:11;;;;;;;128.80;50.33;;;8.50;99.90;;;;;;6222494;23;20024;-93
2022/10/20 01:56:00;;;;;;;129.43;47.55;;;8.60;99.90;;;;;;6200468;23;20043;-93
2022/10/20 01:58:57;;;;;;;121.95;46.53;;;8.60;99.90;;;;;;6198882;23;20467;-93
2022/10/20 02:02:08;;;;;;;122.32;45.72;;;8.60;99.90;;;;;;6220688;23;20116;-92
2022/10/20 02:05:28;;;;;;;106.03;44.08;;;8.50;99.90;;;;;;6198749;23;20047;-91
2022/10/20 02:08:20;;;;;;;114.88;44.55;;;8.40;99.90;;;;;;6199823;23;20085;-92
2022/10/20 02:11:13;;;;;;;134.88;50.97;;;8.50;99.90;;;;;;6200650;23;20086;-92
2022/10/20 02:14:02;;;;;;;137.38;50.72;;;8.60;99.90;;;;;;6222264;23;20339;-92
2022/10/20 02:16:55;;;;;;;128.70;48.00;;;8.70;99.90;;;;;;6200325;23;20498;-92
2022/10/20 02:19:46;;;;;;;108.63;42.65;;;8.80;99.90;;;;;;6212928;23;20047;-92
2022/10/20 02:22:33;;;;;;;113.63;43.90;;;8.80;99.90;;;;;;6235116;23;20427;-92
2022/10/20 02:25:23;;;;;;;127.03;46.42;;;8.70;99.90;;;;;;6238270;23;20024;-93
2022/10/20 02:28:13;;;;;;;100.40;40.58;;;8.70;99.90;;;;;;6242112;23;20029;-90
2022/10/20 02:31:01;;;;;;;117.13;44.25;;;8.70;99.90;;;;;;6214276;23;20032;-89
2022/10/20 02:34:41;;;;;;;140.85;50.25;;;8.70;99.90;;;;;;6222746;23;20017;-90
2022/10/20 02:37:28;;;;;;;141.25;48.95;;;8.80;99.90;;;;;;6222539;23;20012;-90
2022/10/20 02:40:15;;;;;;;131.02;47.85;;;8.90;99.90;;;;;;6221083;23;20092;-89
2022/10/20 02:43:03;;;;;;;126.93;47.30;;;9.00;99.90;;;;;;6244182;23;20027;-91
2022/10/20 02:45:50;;;;;;;140.93;50.80;;;8.90;99.90;;;;;;6221528;23;20098;-94
2022/10/20 02:48:37;;;;;;;135.48;50.97;;;9.00;99.90;;;;;;6207820;23;20020;-93
2022/10/20 02:51:25;;;;;;;137.60;49.38;;;9.10;99.90;;;;;;6230168;23;20028;-92
2022/10/20 02:54:12;;;;;;;159.23;51.58;;;9.10;99.90;;;;;;6207719;23;20428;-91
2022/10/20 02:57:00;;;;;;;149.65;51.78;;;9.10;99.90;;;;;;6207867;23;20028;-92
2022/10/20 02:59:47;;;;;;;138.50;48.38;;;9.10;99.90;;;;;;6219567;23;20032;-93
2022/10/20 03:02:34;;;;;;;148.25;51.03;;;9.00;99.90;;;;;;6220977;23;20032;-93
2022/10/20 03:05:22;;;;;;;168.23;50.83;;;9.00;99.90;;;;;;6199037;23;20044;-92
2022/10/20 03:08:10;;;;;;;139.50;46.25;;;9.00;99.90;;;;;;6221599;23;20107;-93
2022/10/20 03:10:58;;;;;;;147.77;47.97;;;8.90;99.90;;;;;;6199433;23;20094;-92
2022/10/20 03:13:45;;;;;;;117.80;44.58;;;8.90;99.90;;;;;;6198597;23;20416;-91
2022/10/20 03:16:33;;;;;;;140.68;47.67;;;8.90;99.90;;;;;;6198310;23;20442;-92
2022/10/20 03:19:20;;;;;;;136.57;49.67;;;8.90;99.90;;;;;;6199648;23;20020;-93
2022/10/20 03:22:07;;;;;;;126.22;47.42;;;9.00;99.90;;;;;;6222103;23;20100;-92
2022/10/20 03:24:54;;;;;;;147.63;50.78;;;9.10;99.90;;;;;;6200299;23;20067;-93
2022/10/20 03:27:42;;;;;;;164.70;52.65;;;9.20;99.90;;;;;;6209368;23;20039;-91
2022/10/20 03:30:29;;;;;;;156.40;51.83;;;9.30;99.90;;;;;;6206485;23;20035;-92
2022/10/20 03:33:16;;;;;;;144.90;49.20;;;9.30;99.90;;;;;;6211913;23;20016;-93
2022/10/20 03:36:04;;;;;;;161.25;49.30;;;9.30;99.90;;;;;;6207504;23;20067;-93
2022/10/20 03:38:52;;;;;;;184.90;54.35;;;9.30;99.90;;;;;;6207472;23;20024;-91
2022/10/20 03:41:56;;;;;;;162.48;52.67;;;9.30;99.90;;;;;;6205064;23;20029;-92
2022/10/20 03:44:46;;;;;;;163.25;52.75;;;9.40;99.90;;;;;;6201129;23;20025;-92
2022/10/20 03:47:34;;;;;;;154.98;52.90;;;9.40;99.90;;;;;;6222656;23;20087;-92
2022/10/20 03:50:21;;;;;;;172.45;52.78;;;9.50;99.90;;;;;;6201445;23;20095;-92
2022/10/20 03:53:13;;;;;;;160.95;51.90;;;9.60;99.90;;;;;;6208041;23;20266;-93
2022/10/20 03:56:09;;;;;;;162.75;54.45;;;9.60;99.90;;;;;;6206705;23;20020;-93
2022/10/20 03:58:57;;;;;;;171.77;56.58;;;9.70;99.90;;;;;;6215053;23;20024;-92
2022/10/20 04:01:45;;;;;;;184.15;55.92;;;9.70;99.90;;;;;;6210254;23;20027;-92
2022/10/20 04:04:32;;;;;;;152.63;52.45;;;9.70;99.90;;;;;;6211509;23;20051;-92
2022/10/20 04:07:20;;;;;;;155.40;52.15;;;9.70;99.90;;;;;;6211612;23;20035;-91
2022/10/20 04:10:08;;;;;;;139.35;49.67;;;9.60;99.90;;;;;;6213388;23;20056;-93
2022/10/20 04:13:00;;;;;;;169.55;52.08;;;9.60;99.90;;;;;;6205853;23;20031;-95
2022/10/20 04:15:48;;;;;;;162.15;50.83;;;9.60;99.90;;;;;;6205229;23;20047;-92
2022/10/20 04:18:36;;;;;;;159.18;52.08;;;9.60;99.90;;;;;;6199809;23;20025;-92
2022/10/20 04:21:24;;;;;;;159.25;52.22;;;9.70;99.90;;;;;;6183424;23;20044;-94
2022/10/20 04:24:13;;;;;;;162.70;50.22;;;9.70;99.90;;;;;;6200394;23;20024;-93
2022/10/20 04:27:00;;;;;;;152.20;52.20;;;9.70;99.90;;;;;;6220271;23;20025;-93
2022/10/20 04:29:47;;;;;;;140.55;49.17;;;9.70;99.90;;;;;;6196656;23;20039;-90
2022/10/20 04:32:34;;;;;;;162.85;51.60;;;9.70;99.90;;;;;;6217891;23;20020;-92
2022/10/20 04:35:24;;;;;;;180.88;52.97;;;9.70;99.90;;;;;;6199574;23;20387;-89
2022/10/20 04:38:11;;;;;;;177.52;54.15;;;9.60;99.90;;;;;;6196914;23;20079;-89
2022/10/20 04:41:00;;;;;;;154.88;48.05;;;9.70;99.90;;;;;;6219567;23;20024;-91
2022/10/20 04:43:51;;;;;;;178.40;53.40;;;9.60;99.90;;;;;;6195081;23;20032;-91
2022/10/20 04:46:38;;;;;;;146.13;47.95;;;9.60;99.90;;;;;;6217558;23;20063;-90
2022/10/20 04:49:26;;;;;;;140.07;47.63;;;9.60;99.90;;;;;;6197686;23;20062;-91
2022/10/20 04:52:13;;;;;;;182.48;56.78;;;9.50;99.90;;;;;;6198318;23;20025;-90
2022/10/20 04:55:00;;;;;;;183.25;56.05;;;9.60;99.90;;;;;;6218401;23;20407;-89
2022/10/20 04:57:49;;;;;;;174.30;55.45;;;9.70;99.90;;;;;;6217181;23;20151;-90
2022/10/20 05:00:37;;;;;;;183.40;54.05;;;9.70;99.90;;;;;;6218622;23;20048;-91
2022/10/20 05:03:25;;;;;;;171.93;54.78;;;9.60;99.90;;;;;;6216458;23;20028;-84
2022/10/20 05:06:36;;;;;;;182.98;54.45;;;9.60;99.90;;;;;;6195998;23;20059;-84
2022/10/20 05:09:23;;;;;;;191.75;57.53;;;9.60;99.90;;;;;;6218998;23;20116;-87
2022/10/20 05:12:10;;;;;;;150.18;50.50;;;9.50;99.90;;;;;;6215731;23;20038;-87
2022/10/20 05:14:58;;;;;;;187.38;53.00;;;9.50;99.90;;;;;;6194338;23;20020;-87
2022/10/20 05:17:45;;;;;;;168.95;50.88;;;9.50;99.90;;;;;;6196437;23;20036;-87
2022/10/20 05:20:32;;;;;;;178.38;54.83;;;9.40;99.90;;;;;;6194723;23;20336;-87
2022/10/20 05:23:48;;;;;;;174.20;53.63;;;9.50;99.90;;;;;;6218455;23;20036;-90
2022/10/20 05:26:37;;;;;;;171.38;54.50;;;9.50;99.90;;;;;;6218379;23;20095;-89
2022/10/20 05:29:24;;;;;;;163.00;52.97;;;9.50;99.90;;;;;;6195677;23;20080;-88
2022/10/20 05:32:12;;;;;;;155.65;52.50;;;9.50;99.90;;;;;;6196149;23;20024;-87
2022/10/20 05:34:59;;;;;;;181.23;55.42;;;9.50;99.90;;;;;;6216332;23;20041;-88
2022/10/20 05:37:46;;;;;;;159.70;54.08;;;9.50;99.90;;;;;;6218034;23;20016;-89
2022/10/20 05:40:36;;;;;;;180.18;56.30;;;9.60;99.90;;;;;;6194920;23;20048;-88
2022/10/20 05:43:23;;;;;;;167.95;52.10;;;9.60;99.90;;;;;;6194599;23;20039;-87
2022/10/20 05:46:10;;;;;;;142.70;47.50;;;9.50;99.90;;;;;;6218236;23;20099;-88
2022/10/20 05:49:00;;;;;;;162.60;52.30;;;9.40;99.90;;;;;;6218634;23;20103;-87
2022/10/20 05:51:48;;;;;;;147.15;48.65;;;9.40;99.90;;;;;;6195453;23;20024;-87
2022/10/20 05:54:35;;;;;;;159.27;49.08;;;9.30;99.90;;;;;;6216810;23;20039;-90
2022/10/20 05:57:22;;;;;;;166.27;49.95;;;9.20;99.90;;;;;;6217078;23;20107;-88
2022/10/20 06:00:10;;;;;;;138.02;48.95;;;9.10;99.90;;;;;;6196399;23;20103;-87
2022/10/20 06:02:57;;;;;;;156.98;49.35;;;9.10;99.90;;;;;;6197240;23;20048;-88
2022/10/20 06:05:45;;;;;;;153.07;48.53;;;9.10;99.90;;;;;;6219728;23;20100;-89
2022/10/20 06:08:33;;;;;;;153.88;48.47;;;9.00;99.90;;;;;;6220220;23;20028;-87
2022/10/20 06:11:26;;;;;;;140.70;47.47;;;9.00;99.90;;;;;;6218662;23;20024;-87
2022/10/20 06:14:13;;;;;;;141.57;46.38;;;9.00;99.90;;;;;;6196621;23;20110;-89
2022/10/20 06:17:01;;;;;;;155.30;48.75;;;9.00;99.90;;;;;;6219586;23;20025;-88
2022/10/20 06:19:48;;;;;;;139.60;45.33;;;9.00;99.90;;;;;;6198576;23;20031;-87
2022/10/20 06:22:36;;;;;;;159.13;49.88;;;9.00;99.90;;;;;;6219586;23;20035;-87
2022/10/20 06:25:23;;;;;;;159.80;47.65;;;9.00;99.90;;;;;;6218064;23;20020;-86
2022/10/20 06:28:11;;;;;;;142.43;47.00;;;9.10;99.90;;;;;;6198822;23;20025;-88
2022/10/20 06:30:59;;;;;;;159.27;48.15;;;9.10;99.90;;;;;;6196141;23;20412;-88
2022/10/20 06:33:49;;;;;;;174.10;52.00;;;9.10;99.90;;;;;;6216852;23;20030;-88
2022/10/20 06:36:37;;;;;;;159.85;49.00;;;9.30;99.90;;;;;;6196912;23;20159;-88
2022/10/20 06:39:25;;;;;;;165.30;51.67;;;9.40;99.90;;;;;;6196007;23;20024;-87
2022/10/20 06:42:12;;;;;;;153.88;49.67;;;9.40;99.90;;;;;;6219871;23;20371;-87
2022/10/20 06:45:00;;;;;;;192.48;55.20;;;9.50;99.90;;;;;;6220080;23;20361;-88
2022/10/20 06:47:47;;;;;;;207.80;56.78;;;9.70;99.90;;;;;;6222574;23;20078;-88
2022/10/20 06:50:34;;;;;;;190.27;57.00;;;9.90;99.90;;;;;;6221147;23;20047;-88
2022/10/20 06:53:22;;;;;;;160.05;55.22;;;10.00;99.90;;;;;;6198900;23;20020;-87
2022/10/20 06:56:15;;;;;;;198.23;59.55;;;10.10;99.90;;;;;;6196159;23;20099;-87
2022/10/20 06:59:03;;;;;;;176.73;58.00;;;10.20;99.90;;;;;;6219456;23;20102;-87
2022/10/20 07:01:53;;;;;;;191.95;60.50;;;10.20;99.90;;;;;;6216951;23;20025;-87
2022/10/20 07:04:43;;;;;;;178.38;57.30;;;10.30;99.90;;;;;;6216767;23;20052;-89
2022/10/20 07:07:31;;;;;;;184.35;57.55;;;10.40;99.90;;;;;;6220174;23;20430;-89
2022/10/20 07:10:18;;;;;;;169.25;57.22;;;10.50;99.90;;;;;;6194650;23;20033;-89
2022/10/20 07:13:05;;;;;;;190.43;61.45;;;10.60;99.90;;;;;;6195612;23;20104;-90
2022/10/20 07:15:56;;;;;;;177.75;59.15;;;10.70;99.90;;;;;;6219018;23;20091;-89
2022/10/20 07:18:45;;;;;;;172.65;57.45;;;10.90;99.90;;;;;;6198118;23;20078;-89
2022/10/20 07:21:35;;;;;;;153.23;55.88;;;11.00;99.90;;;;;;6217128;23;20072;-89
2022/10/20 07:24:27;;;;;;;153.32;56.40;;;11.10;99.90;;;;;;6197355;23;20107;-88
2022/10/20 07:27:14;;;;;;;142.52;53.47;;;11.10;99.90;;;;;;6219410;23;20055;-89
2022/10/20 07:30:03;;;;;;;166.90;57.65;;;11.30;99.90;;;;;;6196558;23;20063;-89
2022/10/20 07:32:50;;;;;;;150.02;54.20;;;11.50;99.90;;;;;;6218057;23;20024;-88
2022/10/20 07:35:37;;;;;;;145.30;53.25;;;11.70;99.90;;;;;;6195711;23;20048;-89
2022/10/20 07:38:25;;;;;;;138.18;50.95;;;11.80;99.90;;;;;;6219251;23;20088;-89
2022/10/20 07:41:13;;;;;;;122.95;48.65;;;11.90;99.90;;;;;;6195884;23;20096;-88
2022/10/20 07:44:00;;;;;;;106.90;47.25;;;12.20;99.90;;;;;;6195905;23;20450;-89
2022/10/20 07:46:48;;;;;;;101.28;44.25;;;12.30;99.90;;;;;;6195426;23;20107;-88
2022/10/20 07:49:35;;;;;;;84.47;39.08;;;12.40;99.90;;;;;;6196982;23;20025;-88
2022/10/20 07:52:33;;;;;;;69.80;35.70;;;12.60;99.90;;;;;;6218232;23;20024;-87
2022/10/20 07:55:21;;;;;;;52.65;30.10;;;13.00;99.90;;;;;;6196316;23;20088;-87
2022/10/20 07:58:27;;;;;;;43.25;26.52;;;12.90;99.90;;;;;;6200800;23;20032;-86
2022/10/20 08:01:15;;;;;;;41.13;23.05;;;12.90;99.90;;;;;;6196155;23;20468;-87
2022/10/20 08:04:06;;;;;;;31.90;20.58;;;13.00;99.90;;;;;;6217549;23;20281;-87
2022/10/20 08:06:53;;;;;;;26.02;18.75;;;13.00;99.90;;;;;;6195700;23;20403;-86
2022/10/20 08:09:41;;;;;;;26.67;16.63;;;13.10;99.90;;;;;;6196411;23;20048;-88
2022/10/20 08:12:29;;;;;;;25.63;16.77;;;13.30;99.90;;;;;;6219327;23;20103;-88
2022/10/20 08:15:17;;;;;;;22.25;15.05;;;13.60;99.90;;;;;;6196022;23;20095;-89
2022/10/20 08:18:04;;;;;;;23.15;14.23;;;14.10;99.90;;;;;;6216930;23;20044;-87
2022/10/20 08:20:52;;;;;;;18.45;12.93;;;14.40;99.90;;;;;;6196147;23;20427;-88
2022/10/20 08:23:42;;;;;;;15.68;11.45;;;14.80;99.90;;;;;;6195290;23;20127;-90
2022/10/20 08:26:30;;;;;;;16.60;11.90;;;15.50;99.90;;;;;;6219440;23;20028;-88
2022/10/20 08:29:17;;;;;;;14.25;11.90;;;15.50;99.90;;;;;;6217623;23;20024;-88
2022/10/20 08:32:05;;;;;;;15.23;10.48;;;15.70;99.90;;;;;;6195950;23;20039;-87
2022/10/20 08:34:52;;;;;;;14.90;11.05;;;15.80;99.90;;;;;;6215633;23;20110;-90
2022/10/20 08:37:40;;;;;;;13.98;11.10;;;15.70;99.90;;;;;;6217097;23;20021;-88
2022/10/20 08:40:29;;;;;;;17.27;11.07;;;15.90;14.40;;;;;;6196649;23;20082;-89
2022/10/20 08:43:18;;;;;;;14.45;11.18;;;16.10;99.90;;;;;;6195163;23;20424;-86
2022/10/20 08:46:11;;;;;;;17.98;12.50;;;15.90;99.90;;;;;;6194167;23;20103;-87
2022/10/20 08:48:59;;;;;;;;;;;15.60;99.90;;;;;;6196716;23;20028;-87
2022/10/20 08:51:46;;;;;;;22.90;11.77;;;15.20;99.90;;;;;;6222762;23;19934;-90
2022/10/20 08:54:33;;;;;;;14.80;11.13;;;15.50;99.90;;;;;;6200278;23;20029;-88
2022/10/20 08:57:30;;;;;;;17.42;11.55;;;15.80;99.90;;;;;;6198133;23;20311;-89
2022/10/20 09:00:25;;;;;;;15.73;11.45;;;15.80;99.90;;;;;;6226051;23;20024;-88
2022/10/20 09:03:22;;;;;;;13.98;10.48;;;15.70;92.80;;;;;;6196728;23;20467;-90
2022/10/20 09:06:15;;;;;;;16.70;10.77;;;15.80;99.90;;;;;;6219246;23;20083;-89
2022/10/20 09:09:02;;;;;;;16.33;11.15;;;16.00;99.90;;;;;;6219047;23;20025;-89
2022/10/20 09:11:54;;;;;;;16.40;11.43;;;15.90;82.30;;;;;;6224172;23;20021;-87
2022/10/20 09:14:44;;;;;;;14.03;9.47;;;15.90;62.00;;;;;;6205227;23;20051;-88
2022/10/20 09:17:34;;;;;;;11.95;9.75;;;16.00;43.80;;;;;;6198715;23;20020;-88
2022/10/20 09:20:32;;;;;;;14.43;8.75;;;16.10;78.70;;;;;;6196205;23;20407;-89
2022/10/20 09:23:38;;;;;;;17.38;9.45;;;16.20;12.90;;;;;;6196998;23;20028;-88
2022/10/20 09:26:37;;;;;;;11.38;9.00;;;16.20;1.00;;;;;;6218896;23;20118;-89
2022/10/20 09:29:45;;;;;;;13.68;9.82;;;15.80;1.00;;;;;;6200245;23;20167;-89
2022/10/20 09:32:34;;;;;;;13.43;8.80;;;15.60;15.60;;;;;;6218010;23;20169;-89
2022/10/20 09:35:39;;;;;;;13.70;9.82;;;15.40;80.20;;;;;;6225975;23;20032;-91
2022/10/20 09:38:32;;;;;;;18.38;10.68;;;15.30;99.90;;;;;;6224486;23;20072;-90
2022/10/20 09:41:23;;;;;;;17.88;9.10;;;15.20;99.90;;;;;;6197412;23;20043;-88
2022/10/20 09:44:24;;;;;;;12.05;9.40;;;15.30;99.90;;;;;;6197643;23;20035;-89
2022/10/20 09:47:14;;;;;;;10.20;8.65;;;15.20;99.90;;;;;;6198817;23;20448;-88
2022/10/20 09:50:04;;;;;;;13.73;8.80;;;15.20;99.90;;;;;;6198351;23;20109;-90
2022/10/20 09:52:53;;;;;;;18.23;9.07;;;15.40;99.90;;;;;;6197813;23;20048;-88
2022/10/20 09:55:46;;;;;;;14.65;8.57;;;15.60;99.90;;;;;;6198735;23;20031;-89
2022/10/20 09:58:41;;;;;;;17.77;8.35;;;15.80;99.90;;;;;;6203710;23;20031;-89
2022/10/20 10:01:29;;;;;;;11.77;7.40;;;16.00;99.90;;;;;;6205929;23;20029;-85
2022/10/20 10:04:38;;;;;;;10.85;6.60;;;16.10;99.90;;;;;;6205380;23;20033;-83
2022/10/20 10:07:25;;;;;;;13.15;7.10;;;16.40;29.20;;;;;;6205669;23;20102;-86
2022/10/20 10:10:18;;;;;;;10.95;7.20;;;16.60;1.00;;;;;;6219889;23;20040;-85
2022/10/20 10:13:24;;;;;;;9.77;7.18;;;16.70;1.00;;;;;;6220421;23;20095;-85
2022/10/20 10:16:17;;;;;;;11.63;6.80;;;16.90;1.00;;;;;;6198907;23;20025;-85
2022/10/20 10:19:06;;;;;;;;;;;17.10;1.00;;;;;;6199524;23;20058;-85
2022/10/20 10:22:01;;;;;;;9.93;6.57;;;17.50;1.00;;;;;;6223455;23;19916;-87
2022/10/20 10:24:49;;;;;;;11.73;5.90;;;18.30;1.00;;;;;;6218466;23;20122;-86
2022/10/20 10:27:36;;;;;;;9.15;4.80;;;18.50;99.90;;;;;;6216886;23;20025;-86
2022/10/20 10:30:32;;;;;;;7.60;5.38;;;18.50;99.90;;;;;;6218958;23;20114;-85
2022/10/20 10:33:27;;;;;;;7.70;4.80;;;18.30;99.90;;;;;;6217499;23;20052;-86
2022/10/20 10:36:26;;;;;;;6.47;5.10;;;18.40;99.90;;;;;;6218380;23;20115;-85
2022/10/20 10:39:17;;;;;;;9.00;5.72;;;18.00;99.90;;;;;;6196895;23;20114;-86
2022/10/20 10:42:54;;;;;;;8.32;6.03;;;17.80;99.90;;;;;;6196210;23;20096;-85
2022/10/20 10:45:50;;;;;;;12.55;5.90;;;17.40;99.90;;;;;;6192081;23;20139;-84
2022/10/20 10:48:46;;;;;;;10.60;5.57;;;17.10;99.90;;;;;;6215842;23;20107;-87
2022/10/20 10:51:51;;;;;;;9.85;5.93;;;17.00;99.90;;;;;;6218523;23;20592;-84
2022/10/20 10:55:08;;;;;;;10.48;5.57;;;16.80;1.00;;;;;;6218274;23;20104;-86
2022/10/20 10:58:18;;;;;;;11.23;5.60;;;16.90;1.00;;;;;;6217765;23;20032;-86
2022/10/20 11:01:26;;;;;;;9.15;5.57;;;17.00;1.00;;;;;;6195765;23;20102;-86
2022/10/20 11:04:44;;;;;;;8.70;5.40;;;17.30;1.00;;;;;;6198366;23;20106;-86
2022/10/20 11:07:42;;;;;;;6.30;5.05;;;17.30;1.00;;;;;;6218243;23;20055;-84
2022/10/20 11:10:45;;;;;;;10.82;5.80;;;17.50;1.00;;;;;;6219884;23;20032;-85
2022/10/20 11:13:57;;;;;;;10.40;4.70;;;17.70;1.00;;;;;;6218684;23;20340;-86
2022/10/20 11:17:10;;;;;;;11.80;5.35;;;17.70;1.00;;;;;;6197198;23;20025;-87
2022/10/20 11:20:22;;;;;;;8.20;5.43;;;17.90;99.90;;;;;;6191184;23;20032;-83
2022/10/20 11:23:20;;;;;;;10.55;5.72;;;17.70;99.90;;;;;;6197053;23;20095;-87
2022/10/20 11:26:26;;;;;;;11.45;5.95;;;17.60;99.90;;;;;;6218671;23;20032;-86
2022/10/20 11:29:31;;;;;;;9.57;5.00;;;17.40;99.90;;;;;;6199288;23;20423;-86
2022/10/20 11:32:38;;;;;;;12.18;5.53;;;17.40;1.00;;;;;;6219743;23;20063;-83
2022/10/20 11:35:39;;;;;;;10.40;4.70;;;17.50;1.00;;;;;;6197213;23;20024;-85
2022/10/20 11:38:42;;;;;;;9.38;4.90;;;17.60;1.00;;;;;;6219023;23;20086;-85
2022/10/20 11:41:48;;;;;;;9.00;4.72;;;17.70;1.00;;;;;;6197726;23;20058;-85
2022/10/20 11:44:47;;;;;;;8.02;4.57;;;17.60;1.00;;;;;;6198193;23;20507;-85
2022/10/20 11:47:44;;;;;;;9.68;4.70;;;17.40;1.00;;;;;;6221167;23;20032;-85
2022/10/20 11:50:33;;;;;;;8.38;4.57;;;17.40;1.00;;;;;;6216460;23;20111;-84
2022/10/20 11:53:55;;;;;;;8.77;4.35;;;17.30;1.00;;;;;;6215567;23;20039;-86
2022/10/20 11:57:10;;;;;;;7.07;4.32;;;17.30;1.00;;;;;;6214077;23;20036;-85
2022/10/20 12:00:22;;;;;;;7.18;4.93;;;17.30;1.00;;;;;;6217442;23;20060;-85
2022/10/20 12:03:26;;;;;;;7.27;4.60;;;17.30;1.00;;;;;;6195663;23;20102;-86
2022/10/20 12:06:22;;;;;;;5.78;4.32;;;17.30;1.00;;;;;;6217344;23;20239;-84
2022/10/20 12:09:31;;;;;;;8.82;4.57;;;17.40;1.00;;;;;;6216503;23;20300;-86
2022/10/20 12:12:32;;;;;;;9.23;4.30;;;17.30;1.00;;;;;;6196542;23;20423;-86
2022/10/20 12:15:23;;;;;;;11.70;4.53;;;17.40;1.00;;;;;;6218002;23;20428;-85
2022/10/20 12:18:26;;;;;;;8.93;4.30;;;17.30;1.00;;;;;;6216318;23;20235;-86
2022/10/20 12:21:53;;;;;;;7.70;4.55;;;17.30;1.00;;;;;;6217125;23;20031;-84
2022/10/20 12:24:49;;;;;;;11.55;5.20;;;17.10;1.00;;;;;;6195057;23;20024;-85
2022/10/20 12:27:36;;;;;;;7.13;4.43;;;17.00;1.00;;;;;;6196525;23;20028;-84
2022/10/20 12:30:36;;;;;;;6.22;4.50;;;17.00;1.00;;;;;;6215986;23;20033;-85
2022/10/20 12:33:53;;;;;;;7.80;4.70;;;16.90;1.00;;;;;;6217258;23;20056;-84
2022/10/20 12:36:40;;;;;;;9.90;4.60;;;16.80;1.00;;;;;;6218881;23;20040;-84
2022/10/20 12:39:28;;;;;;;8.85;4.88;;;16.70;1.00;;;;;;6195239;23;20039;-83
2022/10/20 12:42:21;;;;;;;14.00;5.10;;;16.60;1.00;;;;;;6216815;23;20079;-86
2022/10/20 12:45:36;;;;;;;5.88;4.72;;;16.40;1.00;;;;;;6210228;23;20020;-85
2022/10/20 12:48:24;;;;;;;10.60;4.45;;;16.40;22.20;;;;;;6210727;23;20020;-85
2022/10/20 12:51:40;;;;;;;12.82;4.97;;;16.40;68.10;;;;;;6231006;23;20035;-85
2022/10/20 12:54:40;;;;;;;6.38;4.60;;;16.20;99.90;;;;;;6217026;23;20024;-85
2022/10/20 12:57:42;;;;;;;7.47;5.13;;;16.20;99.90;;;;;;6233902;23;20040;-84
2022/10/20 13:00:31;;;;;;;9.20;5.38;;;16.20;99.90;;;;;;6220236;23;20028;-84
2022/10/20 13:03:31;;;;;;;7.60;4.93;;;16.20;99.90;;;;;;6231967;23;20072;-85
2022/10/20 13:06:21;;;;;;;12.00;5.43;;;16.20;1.00;;;;;;6209073;23;20029;-84
2022/10/20 13:09:19;;;;;;;9.85;5.35;;;16.20;1.00;;;;;;6218994;23;20075;-85
2022/10/20 13:12:27;;;;;;;12.38;5.13;;;16.20;1.00;;;;;;6199797;23;20105;-85
2022/10/20 13:15:24;;;;;;;11.60;5.32;;;16.30;1.00;;;;;;6219170;23;20029;-85
2022/10/20 13:18:19;;;;;;;11.82;5.28;;;16.20;1.00;;;;;;6196114;23;20096;-84
2022/10/20 13:21:29;;;;;;;8.95;5.28;;;16.30;1.00;;;;;;6197773;23;20036;-84
2022/10/20 13:24:22;;;;;;;12.25;4.88;;;16.30;1.00;;;;;;6195853;23;20024;-85
2022/10/20 13:27:10;;;;;;;6.78;4.25;;;16.40;1.00;;;;;;6218267;23;20320;-85
2022/10/20 13:30:00;;;;;;;5.80;4.32;;;16.50;99.90;;;;;;6218254;23;20301;-85
2022/10/20 13:33:15;;;;;;;6.28;3.92;;;16.80;99.90;;;;;;6176785;23;20151;-85
2022/10/20 13:36:43;;;;;;;12.55;4.80;;;17.00;99.90;;;;;;6216857;23;20039;-85
2022/10/20 13:39:42;;;;;;;7.88;5.50;;;17.10;99.90;;;;;;6218517;23;20021;-86
2022/10/20 13:43:00;;;;;;;9.98;5.05;;;17.00;77.30;;;;;;6217746;23;20024;-83
2022/10/20 13:45:54;;;;;;;11.90;5.30;;;16.90;46.00;;;;;;6197327;23;20025;-86
2022/10/20 13:49:07;;;;;;;9.57;5.10;;;17.00;99.90;;;;;;6218365;23;20343;-86
2022/10/20 13:51:59;;;;;;;10.82;5.68;;;16.90;99.90;;;;;;6195093;23;20032;-84
2022/10/20 13:54:50;;;;;;;13.68;5.22;;;16.70;99.90;;;;;;6196771;23;20020;-84
2022/10/20 13:57:55;;;;;;;9.85;4.93;;;16.70;99.90;;;;;;6217533;23;20040;-86
2022/10/20 14:00:56;;;;;;;6.32;4.70;;;16.70;99.90;;;;;;6218812;23;20083;-87
2022/10/20 14:03:45;;;;;;;11.77;6.07;;;16.60;99.90;;;;;;6217637;23;20036;-85
2022/10/20 14:06:40;;;;;;;8.07;5.03;;;16.50;99.90;;;;;;6218152;23;20126;-85
2022/10/20 14:09:27;;;;;;;13.10;4.70;;;16.50;99.90;;;;;;6196602;23;20115;-86
2022/10/20 14:12:22;;;;;;;10.13;4.90;;;16.60;99.90;;;;;;6196674;23;20109;-85
2022/10/20 14:15:15;;;;;;;10.02;5.00;;;16.50;99.90;;;;;;6217595;23;20088;-84
2022/10/20 14:18:06;;;;;;;9.40;5.43;;;16.50;99.90;;;;;;6215449;23;20056;-86
2022/10/20 14:21:01;;;;;;;12.60;5.47;;;16.40;99.90;;;;;;6216463;23;20477;-84
2022/10/20 14:23:54;;;;;;;9.07;5.30;;;16.40;99.90;;;;;;6214739;23;20028;-83
2022/10/20 14:26:42;;;;;;;;;;;16.30;99.90;;;;;;6217374;23;20025;-84
2022/10/20 14:29:39;;;;;;;10.18;4.82;;;16.20;1.00;;;;;;6219833;23;19924;-84
2022/10/20 14:32:28;;;;;;;9.77;5.07;;;16.10;1.00;;;;;;6196011;23;20036;-83
2022/10/20 14:38:37;;;;;;;12.65;6.50;;;15.90;99.90;;;;;;6219511;23;20029;-83
2022/10/20 14:41:40;;;;;;;8.93;5.97;;;15.90;99.90;;;;;;6218204;23;20024;-86
2022/10/20 14:44:28;;;;;;;8.77;6.18;;;15.90;1.00;;;;;;6196767;23;20020;-86
2022/10/20 14:48:02;;;;;;;8.85;6.25;;;15.90;1.00;;;;;;6220877;23;20028;-84
2022/10/20 14:51:12;;;;;;;10.20;6.75;;;15.90;99.90;;;;;;6216537;23;20417;-87
2022/10/20 14:54:41;;;;;;;7.90;5.80;;;15.80;1.00;;;;;;6196540;23;20024;-87